Time;durP1;ratioP1;P1;durP2;ratioP2;P2;SDS_P1;SDS_P2;PMS_P1;PMS_P2;Temp;Humidity;BMP_temperature;BMP_pressure;BME280_temperature;BME280_humidity;BME280_pressure;Samples;Min_cycle;Max_cycle;Signal;HPM_P1;HPM_P2
2022/09/20 00:00:42;;;;;;;5.18;1.25;;;;;;;11.59;74.12;102152.38;6242071;22;20018;-81
2022/09/20 00:03:09;;;;;;;7.90;1.25;;;;;;;11.51;74.58;102153.34;6241715;22;20482;-80
2022/09/20 00:05:36;;;;;;;6.05;1.10;;;;;;;11.58;74.08;102159.16;6241879;22;20043;-80
2022/09/20 00:08:04;;;;;;;6.70;2.40;;;;;;;11.52;74.04;102165.34;6243465;23;20329;-80
2022/09/20 00:10:34;;;;;;;9.02;1.27;;;;;;;11.42;74.31;102161.03;6241086;22;20442;-80
2022/09/20 00:13:00;;;;;;;8.18;1.95;;;;;;;11.26;75.02;102163.75;6244377;22;20058;-81
2022/09/20 00:15:25;;;;;;;4.43;1.42;;;;;;;11.48;74.20;102165.25;6241782;22;20004;-80
2022/09/20 00:17:51;;;;;;;11.57;1.90;;;;;;;11.50;73.61;102160.09;6242249;23;20004;-80
2022/09/20 00:20:17;;;;;;;6.82;1.40;;;;;;;11.51;74.57;102163.72;6241130;23;20012;-80
2022/09/20 00:22:42;;;;;;;3.65;0.90;;;;;;;11.56;74.00;102169.91;6241472;23;20008;-80
2022/09/20 00:25:08;;;;;;;6.13;0.90;;;;;;;11.54;73.79;102169.44;6242319;23;20008;-80
2022/09/20 00:27:33;;;;;;;7.15;1.30;;;;;;;11.57;73.75;102162.31;6241840;23;20391;-80
2022/09/20 00:29:59;;;;;;;6.00;1.20;;;;;;;11.55;73.49;102153.44;6242013;23;20016;-79
2022/09/20 00:32:24;;;;;;;8.25;1.25;;;;;;;11.55;73.20;102156.22;6242189;23;20004;-80
2022/09/20 00:35:09;;;;;;;7.57;1.30;;;;;;;11.59;73.48;102162.75;6241291;23;20008;-80
2022/09/20 00:37:40;;;;;;;8.25;2.45;;;;;;;11.56;73.25;102171.91;6243103;22;20018;-79
2022/09/20 00:40:12;;;;;;;2.47;0.93;;;;;;;11.57;72.81;102171.56;6240415;22;20340;-80
2022/09/20 00:42:38;;;;;;;7.00;1.13;;;;;;;11.59;72.87;102162.75;6242129;22;20062;-80
2022/09/20 00:45:10;;;;;;;5.82;1.50;;;;;;;11.56;73.75;102178.31;6240779;22;20011;-80
2022/09/20 00:48:06;;;;;;;7.55;1.25;;;;;;;11.49;73.35;102172.50;6243142;22;20008;-80
2022/09/20 00:50:36;;;;;;;6.78;1.60;;;;;;;11.56;73.13;102169.09;6243045;22;20011;-79
2022/09/20 00:53:09;;;;;;;6.72;1.23;;;;;;;11.52;72.76;102165.34;6240919;23;20070;-79
2022/09/20 00:55:38;;;;;;;6.90;1.25;;;;;;;11.47;73.37;102169.22;6242280;23;20062;-80
2022/09/20 00:58:04;;;;;;;3.63;1.05;;;;;;;11.48;73.33;102165.25;6215983;23;20056;-80
2022/09/20 01:00:30;;;;;;;4.25;1.20;;;;;;;11.40;74.00;102163.38;6214544;23;20016;-80
2022/09/20 01:03:00;;;;;;;6.45;1.63;;;;;;;11.50;74.20;102162.09;6213262;23;20348;-80
2022/09/20 01:05:26;;;;;;;6.95;1.10;;;;;;;11.46;74.44;102161.16;6240953;23;20018;-80
2022/09/20 01:07:53;;;;;;;8.65;1.58;;;;;;;11.41;74.19;102153.81;6242303;23;20018;-80
2022/09/20 01:10:18;;;;;;;3.72;1.00;;;;;;;11.42;74.57;102154.63;6211695;23;20083;-80
2022/09/20 01:12:46;;;;;;;3.45;1.45;;;;;;;11.40;75.19;102157.78;6241873;23;20462;-80
2022/09/20 01:15:14;;;;;;;6.78;1.45;;;;;;;11.37;75.40;102164.09;6242556;23;20011;-80
2022/09/20 01:17:43;;;;;;;4.78;1.10;;;;;;;11.38;75.03;102158.16;6242720;23;20428;-80
2022/09/20 01:20:17;;;;;;;9.75;1.65;;;;;;;11.33;74.60;102160.38;6212877;23;20099;-80
2022/09/20 01:22:55;;;;;;;5.15;1.17;;;;;;;11.31;74.86;102168.31;6240150;23;20039;-79
2022/09/20 01:25:38;;;;;;;6.05;1.20;;;;;;;10.82;76.06;102159.91;6240445;23;20073;-81
2022/09/20 01:28:04;;;;;;;7.88;2.00;;;;;;;10.92;75.34;102165.03;6239699;23;20405;-80
2022/09/20 01:30:41;;;;;;;11.18;1.25;;;;;;;10.97;76.43;102167.59;6239050;23;20019;-80
2022/09/20 01:34:02;;;;;;;8.13;1.20;;;;;;;10.97;76.07;102159.19;6240671;23;20028;-80
2022/09/20 01:37:16;;;;;;;4.53;1.40;;;;;;;11.22;75.53;102162.81;6176552;23;20021;-80
2022/09/20 01:39:54;;;;;;;7.55;1.30;;;;;;;11.25;75.67;102164.91;6228432;23;20016;-80
2022/09/20 01:42:30;;;;;;;5.00;1.13;;;;;;;11.27;75.33;102170.19;6239531;23;20125;-80
2022/09/20 01:45:21;;;;;;;6.47;1.30;;;;;;;11.27;75.71;102164.56;6214548;23;20070;-80
2022/09/20 01:48:01;;;;;;;4.55;1.02;;;;;;;11.29;75.76;102162.22;6213398;23;20062;-80
2022/09/20 01:50:44;;;;;;;7.72;1.80;;;;;;;11.17;76.11;102160.25;6239137;23;20016;-80
2022/09/20 01:53:18;;;;;;;6.47;1.73;;;;;;;11.21;76.28;102169.59;6214633;23;20016;-80
2022/09/20 01:56:07;;;;;;;10.02;1.35;;;;;;;11.20;76.61;102165.16;6239048;23;20018;-80
2022/09/20 01:58:42;;;;;;;6.20;1.52;;;;;;;11.18;76.40;102159.91;6237040;23;20062;-80
2022/09/20 02:01:30;;;;;;;4.13;1.23;;;;;;;11.25;76.22;102169.72;6241313;22;20012;-79
2022/09/20 02:04:07;;;;;;;7.95;1.30;;;;;;;11.29;75.96;102173.44;6240054;23;20336;-80
2022/09/20 02:06:43;;;;;;;4.75;1.00;;;;;;;11.19;76.30;102169.97;6239366;23;20054;-80
2022/09/20 02:09:38;;;;;;;7.13;1.70;;;;;;;11.08;76.92;102162.34;6238271;22;20494;-80
2022/09/20 02:12:48;;;;;;;6.65;1.30;;;;;;;11.14;76.63;102164.56;6239685;23;20058;-80
2022/09/20 02:15:32;;;;;;;12.85;2.70;;;;;;;11.16;76.88;102165.03;6240643;22;20023;-79
2022/09/20 02:18:43;;;;;;;4.88;1.77;;;;;;;11.11;76.73;102161.66;6238648;23;20086;-80
2022/09/20 02:21:31;;;;;;;5.97;1.48;;;;;;;11.11;76.79;102159.69;6236594;23;20058;-80
2022/09/20 02:24:37;;;;;;;3.67;1.25;;;;;;;11.11;77.03;102162.47;6237790;23;20038;-80
2022/09/20 02:27:25;;;;;;;2.95;1.30;;;;;;;11.14;76.67;102164.56;6239193;22;20783;-79
2022/09/20 02:30:03;;;;;;;4.75;1.10;;;;;;;11.12;77.15;102158.50;6236688;23;20442;-80
2022/09/20 02:32:46;;;;;;;10.52;1.50;;;;;;;11.10;77.00;102160.84;6238654;22;20067;-80
2022/09/20 02:35:46;;;;;;;5.63;1.52;;;;;;;11.05;78.02;102154.66;6239070;23;20027;-79
2022/09/20 02:38:43;;;;;;;3.70;1.48;;;;;;;11.08;77.59;102157.56;6235767;23;20004;-79
2022/09/20 02:41:37;;;;;;;7.00;1.60;;;;;;;11.08;77.80;102162.34;6236386;23;20016;-80
2022/09/20 02:44:14;;;;;;;7.75;1.60;;;;;;;11.13;77.82;102159.31;6241237;22;20007;-80
2022/09/20 02:47:08;;;;;;;6.30;2.47;;;;;;;11.10;77.76;102155.22;6243531;22;20360;-80
2022/09/20 02:49:58;;;;;;;6.57;1.27;;;;;;;11.04;77.82;102156.63;6242108;22;20344;-80
2022/09/20 02:52:27;;;;;;;4.28;1.10;;;;;;;11.05;78.51;102154.66;6240216;23;20008;-80
2022/09/20 02:55:06;;;;;;;5.82;1.48;;;;;;;11.04;78.27;102156.63;6188243;23;20028;-80
2022/09/20 02:57:49;;;;;;;7.82;1.45;;;;;;;11.12;77.82;102164.09;6184342;23;20039;-80
2022/09/20 03:00:25;;;;;;;7.68;1.67;;;;;;;11.15;78.18;102163.41;6183992;23;20318;-80
2022/09/20 03:03:22;;;;;;;3.05;0.80;;;;;;;11.12;78.07;102158.50;6184416;23;20205;-80
2022/09/20 03:05:57;;;;;;;7.85;1.35;;;;;;;11.04;78.79;102161.41;6174205;23;20004;-80
2022/09/20 03:08:30;;;;;;;2.53;1.05;;;;;;;11.06;78.85;102156.28;6183995;23;20388;-80
2022/09/20 03:11:08;;;;;;;3.72;1.50;;;;;;;11.06;78.54;102154.28;6182722;23;20107;-79
2022/09/20 03:13:48;;;;;;;5.35;1.17;;;;;;;11.00;78.96;102166.91;6182745;23;20016;-80
2022/09/20 03:16:31;;;;;;;5.28;1.42;;;;;;;11.15;78.61;102171.81;6182374;23;20016;-79
2022/09/20 03:19:23;;;;;;;3.03;1.85;;;;;;;11.15;78.35;102169.03;6180280;23;20025;-80
2022/09/20 03:22:23;;;;;;;5.05;1.45;;;;;;;10.98;79.28;102181.28;6208680;23;20005;-79
2022/09/20 03:25:22;;;;;;;8.77;1.50;;;;;;;10.97;78.79;102168.41;6208314;23;20008;-79
2022/09/20 03:28:10;;;;;;;4.32;1.52;;;;;;;11.05;78.90;102169.47;6206381;23;20017;-79
2022/09/20 03:30:47;;;;;;;12.07;2.25;;;;;;;11.14;78.52;102178.59;6182115;23;20070;-79
2022/09/20 03:33:40;;;;;;;9.00;1.67;;;;;;;11.00;79.76;102169.69;6180780;23;20481;-80
2022/09/20 03:36:26;;;;;;;7.93;2.13;;;;;;;11.09;78.63;102173.22;6182860;23;20021;-80
2022/09/20 03:39:08;;;;;;;6.18;1.13;;;;;;;11.16;78.80;102167.84;6182753;23;20388;-80
2022/09/20 03:41:46;;;;;;;6.00;1.60;;;;;;;11.22;78.40;102173.22;6208574;23;20012;-80
2022/09/20 03:44:42;;;;;;;2.70;1.08;;;;;;;11.19;78.87;102174.72;6183224;23;20020;-80
2022/09/20 03:47:41;;;;;;;7.75;1.30;;;;;;;11.23;78.65;102174.84;6212365;23;20106;-80
2022/09/20 03:50:46;;;;;;;2.65;1.20;;;;;;;11.23;78.42;102175.66;6212498;23;20024;-80
2022/09/20 03:53:39;;;;;;;5.25;1.90;;;;;;;11.03;79.58;102177.41;6183683;23;20023;-80
2022/09/20 03:56:10;;;;;;;;;;;;;;;11.08;79.20;102181.97;6210972;23;20013;-79
2022/09/20 03:58:38;;;;;;;10.00;2.08;;;;;;;10.87;80.06;102177.28;6207804;23;19962;-80
2022/09/20 04:01:45;;;;;;;8.57;1.70;;;;;;;11.14;79.05;102172.97;6182032;23;20433;-80
2022/09/20 04:04:39;;;;;;;7.80;1.58;;;;;;;11.18;78.66;102179.53;6207187;23;20091;-80
2022/09/20 04:07:32;;;;;;;3.97;1.40;;;;;;;11.24;78.50;102182.09;6170697;23;20457;-80
2022/09/20 04:10:35;;;;;;;6.05;1.83;;;;;;;11.19;79.95;102191.53;6208359;23;20008;-80
2022/09/20 04:13:16;;;;;;;5.60;1.83;;;;;;;11.12;79.33;102192.13;6086578;23;20007;-80
2022/09/20 04:16:19;;;;;;;6.90;1.77;;;;;;;11.23;79.06;102191.66;6193270;23;20027;-80
2022/09/20 04:18:55;;;;;;;8.23;2.65;;;;;;;11.24;79.44;102194.13;6208907;23;20019;-80
2022/09/20 04:21:38;;;;;;;6.13;1.33;;;;;;;11.26;79.21;102193.75;6207270;23;20016;-80
2022/09/20 04:24:04;;;;;;;4.20;1.23;;;;;;;11.28;78.95;102194.22;6207872;23;20769;-80
2022/09/20 04:26:34;;;;;;;7.53;1.50;;;;;;;11.23;79.68;102181.25;6209389;23;20020;-80
2022/09/20 04:29:18;;;;;;;4.35;1.63;;;;;;;11.18;80.50;102190.72;6206066;23;20499;-79
2022/09/20 04:31:56;;;;;;;4.97;2.17;;;;;;;11.18;80.02;102184.31;6179479;23;20017;-80
2022/09/20 04:36:27;;;;;;;6.60;1.40;;;;;;;11.21;80.10;102183.59;6181514;23;20386;-80
2022/09/20 04:37:35;;;;;;;8.70;1.40;;;;;;;11.21;79.41;102180.00;6208949;23;20024;-79
2022/09/20 04:40:34;;;;;;;7.80;2.22;;;;;;;11.29;79.42;102187.47;6208084;23;20013;-79
2022/09/20 04:43:38;;;;;;;4.43;1.50;;;;;;;11.35;79.11;102183.25;6180928;23;20052;-80
2022/09/20 04:46:25;;;;;;;2.40;1.20;;;;;;;11.28;79.78;102178.25;6210259;23;20011;-80
2022/09/20 04:49:28;;;;;;;3.97;1.40;;;;;;;11.31;79.34;102185.13;6209668;23;20035;-80
2022/09/20 04:52:14;;;;;;;4.70;1.60;;;;;;;11.29;79.49;102190.25;6211632;23;20082;-80
2022/09/20 04:54:58;;;;;;;7.25;1.58;;;;;;;11.30;80.17;102197.50;6235894;22;20020;-80
2022/09/20 04:57:24;;;;;;;8.60;1.35;;;;;;;11.25;79.75;102197.75;6239616;23;20075;-80
2022/09/20 05:00:14;;;;;;;10.10;2.22;;;;;;;11.28;80.00;102200.66;6238309;23;20039;-79
2022/09/20 05:03:17;;;;;;;4.03;1.73;;;;;;;11.32;80.03;102195.16;6214719;23;20459;-80
2022/09/20 05:06:20;;;;;;;5.85;1.60;;;;;;;10.98;82.62;102197.25;6215126;23;20065;-79
2022/09/20 05:09:16;;;;;;;5.20;1.60;;;;;;;11.22;80.37;102195.66;6241438;23;20469;-79
2022/09/20 05:12:05;;;;;;;6.60;1.50;;;;;;;11.25;80.33;102203.34;6241158;23;20012;-80
2022/09/20 05:14:47;;;;;;;7.47;1.63;;;;;;;11.19;82.03;102197.97;6237838;23;20008;-80
2022/09/20 05:17:30;;;;;;;10.68;1.77;;;;;;;11.26;80.45;102203.00;6212778;23;20032;-79
2022/09/20 05:20:03;;;;;;;3.85;1.98;;;;;;;11.34;80.73;102206.84;6239204;23;20019;-80
2022/09/20 05:22:41;;;;;;;6.30;1.38;;;;;;;11.29;80.87;102209.88;6235438;23;20016;-80
2022/09/20 05:25:06;;;;;;;7.00;1.55;;;;;;;11.32;81.00;102218.41;6237359;23;20012;-80
2022/09/20 05:27:56;;;;;;;2.67;1.30;;;;;;;11.22;80.77;102213.28;6236641;23;20004;-80
2022/09/20 05:30:36;;;;;;;5.05;1.27;;;;;;;11.30;80.88;102214.31;6210445;23;20040;-80
2022/09/20 05:33:22;;;;;;;3.70;1.52;;;;;;;11.29;81.87;102216.31;6237827;23;20019;-80
2022/09/20 05:35:53;;;;;;;6.45;1.63;;;;;;;11.32;81.00;102224.03;6211335;23;20008;-79
2022/09/20 05:38:39;;;;;;;10.30;2.08;;;;;;;11.33;81.59;102224.84;6237968;23;20008;-79
2022/09/20 05:41:30;;;;;;;6.22;1.98;;;;;;;11.24;83.16;102226.94;6209530;23;20042;-79
2022/09/20 05:44:17;;;;;;;2.25;1.17;;;;;;;11.35;81.13;102228.91;6211290;23;20104;-80
2022/09/20 05:47:00;;;;;;;3.03;1.60;;;;;;;11.29;81.95;102233.13;6211745;23;20012;-79
2022/09/20 05:49:50;;;;;;;3.83;1.88;;;;;;;11.19;83.36;102237.22;6211141;23;20103;-80
2022/09/20 05:52:24;;;;;;;3.47;1.55;;;;;;;11.23;82.92;102242.13;6238039;23;20012;-80
2022/09/20 05:55:27;;;;;;;6.18;1.50;;;;;;;11.30;82.58;102236.72;6237166;23;20381;-80
2022/09/20 05:57:55;;;;;;;;;;;;;;;11.36;82.54;102238.97;6236925;23;20015;-80
2022/09/20 06:00:25;;;;;;;3.78;1.25;;;;;;;11.34;83.50;102243.28;6235354;23;19907;-80
2022/09/20 06:03:14;;;;;;;3.05;1.38;;;;;;;11.27;83.43;102240.25;6209528;23;20375;-80
2022/09/20 06:06:11;;;;;;;6.65;1.63;;;;;;;11.37;82.02;102248.19;6210525;23;20581;-80
2022/09/20 06:09:09;;;;;;;5.88;1.65;;;;;;;11.39;82.48;102240.25;6234444;23;20526;-80
2022/09/20 06:12:00;;;;;;;3.90;1.67;;;;;;;11.40;82.62;102250.28;6185264;23;20008;-82
2022/09/20 06:14:31;;;;;;;7.30;1.77;;;;;;;11.48;81.43;102249.34;6206840;23;20023;-82
2022/09/20 06:17:26;;;;;;;5.35;2.00;;;;;;;11.30;84.49;102242.34;6233642;23;20008;-82
2022/09/20 06:20:09;;;;;;;5.72;1.50;;;;;;;11.32;85.38;102254.03;6235911;23;20012;-82
2022/09/20 06:22:43;;;;;;;10.02;1.60;;;;;;;11.38;84.90;102277.84;6208798;23;20321;-82
2022/09/20 06:25:09;;;;;;;7.07;1.85;;;;;;;11.07;90.02;102273.63;6213351;23;20020;-82
2022/09/20 06:27:43;;;;;;;3.58;1.60;;;;;;;11.14;85.98;102267.44;6240443;23;20071;-82
2022/09/20 06:30:42;;;;;;;4.85;1.63;;;;;;;11.26;86.84;102278.69;6214105;23;20016;-82
2022/09/20 06:33:19;;;;;;;3.95;1.60;;;;;;;11.38;85.79;102273.09;6210040;23;20151;-82
2022/09/20 06:41:51;;;;;;;8.40;1.42;;;;;;;11.37;87.67;102281.84;6238979;23;20063;-82
2022/09/20 06:44:16;;;;;;;2.75;1.30;;;;;;;11.38;88.42;102284.31;6210297;23;20787;-81
2022/09/20 06:46:41;;;;;;;4.22;1.65;;;;;;;11.37;86.90;102281.84;6211995;23;20077;-82
2022/09/20 06:49:08;;;;;;;4.43;1.40;;;;;;;11.44;88.19;102282.06;6240975;23;20000;-81
2022/09/20 06:51:35;;;;;;;7.05;1.75;;;;;;;11.41;86.56;102281.97;6240204;23;20008;-81
2022/09/20 06:54:01;;;;;;;2.17;1.23;;;;;;;11.37;90.76;102282.66;6223153;23;20016;-81
2022/09/20 06:56:30;;;;;;;2.67;1.70;;;;;;;11.36;92.35;102280.19;6237896;23;20012;-82
2022/09/20 06:58:55;;;;;;;3.60;1.58;;;;;;;11.47;89.52;102289.78;6240383;22;20020;-82
2022/09/20 07:01:21;;;;;;;6.43;1.58;;;;;;;11.49;88.38;102281.84;6240307;22;20440;-80
2022/09/20 07:03:47;;;;;;;1.92;0.90;;;;;;;11.53;85.98;102284.75;6241445;22;20004;-80
2022/09/20 07:06:18;;;;;;;4.10;1.73;;;;;;;11.54;90.00;102281.59;6237296;23;20016;-79
2022/09/20 07:08:45;;;;;;;7.78;1.30;;;;;;;11.51;87.29;102276.72;6237843;23;20473;-79
2022/09/20 07:11:15;;;;;;;3.50;1.17;;;;;;;11.70;84.53;102280.91;6241238;22;20015;-79
2022/09/20 07:13:41;;;;;;;3.67;1.02;;;;;;;11.71;88.26;102274.13;6240640;22;20000;-79
2022/09/20 07:16:09;;;;;;;2.00;1.20;;;;;;;11.54;90.37;102270.38;6238522;22;20022;-80
2022/09/20 07:18:34;;;;;;;9.25;1.90;;;;;;;11.53;88.31;102267.94;6239583;23;20047;-79
2022/09/20 07:21:00;;;;;;;3.22;1.25;;;;;;;11.63;90.26;102267.47;6240434;22;20531;-80
2022/09/20 07:23:28;;;;;;;2.28;1.13;;;;;;;11.76;86.85;102269.09;6238867;23;20011;-79
2022/09/20 07:25:59;;;;;;;5.85;1.20;;;;;;;11.77;87.61;102267.94;6240968;22;20008;-80
2022/09/20 07:28:26;;;;;;;5.28;1.40;;;;;;;11.85;90.48;102268.13;6241570;22;20074;-79
2022/09/20 07:30:51;;;;;;;3.53;0.90;;;;;;;11.77;85.66;102267.94;6239086;23;20010;-80
2022/09/20 07:33:20;;;;;;;12.70;2.03;;;;;;;11.76;92.48;102277.53;6240075;23;20082;-80
2022/09/20 07:35:46;;;;;;;3.88;1.13;;;;;;;11.73;87.67;102266.19;6240251;23;20042;-79
2022/09/20 07:38:12;;;;;;;4.28;1.27;;;;;;;11.91;92.12;102267.59;6241509;22;20051;-79
2022/09/20 07:40:37;;;;;;;4.38;1.15;;;;;;;11.93;91.48;102281.25;6237598;23;20336;-79
2022/09/20 07:43:03;;;;;;;5.97;1.20;;;;;;;11.85;91.79;102274.59;6240963;22;20012;-79
2022/09/20 07:45:29;;;;;;;5.90;1.90;;;;;;;11.84;88.55;102270.13;6239565;22;20023;-80
2022/09/20 07:47:57;;;;;;;2.05;0.88;;;;;;;11.94;86.65;102278.09;6239376;22;20023;-79
2022/09/20 07:50:22;;;;;;;3.03;1.00;;;;;;;11.97;86.61;102277.41;6239621;22;20036;-79
2022/09/20 07:52:47;;;;;;;6.85;1.55;;;;;;;11.92;90.14;102274.84;6237340;22;20050;-79
2022/09/20 07:55:13;;;;;;;6.10;1.15;;;;;;;12.05;87.80;102284.03;6213684;23;20082;-80
2022/09/20 07:57:38;;;;;;;5.88;1.45;;;;;;;12.15;88.65;102294.78;6212762;23;20098;-79
2022/09/20 08:00:05;;;;;;;8.95;1.50;;;;;;;12.15;90.21;102294.78;6214357;23;20428;-80
2022/09/20 08:02:31;;;;;;;5.18;1.38;;;;;;;12.13;90.54;102296.31;6214329;23;20003;-80
2022/09/20 08:04:56;;;;;;;3.30;1.50;;;;;;;12.22;89.19;102298.97;6214766;23;20016;-79
2022/09/20 08:07:21;;;;;;;6.40;1.70;;;;;;;12.23;89.20;102307.06;6215594;23;20020;-80
2022/09/20 08:09:47;;;;;;;4.70;1.40;;;;;;;12.23;90.90;102312.69;6238317;23;20008;-80
2022/09/20 08:12:13;;;;;;;6.07;1.40;;;;;;;12.20;90.39;102313.38;6212681;23;20036;-80
2022/09/20 08:14:38;;;;;;;5.72;1.65;;;;;;;12.27;89.54;102312.75;6241173;23;20078;-80
2022/09/20 08:17:04;;;;;;;12.23;1.40;;;;;;;12.36;87.72;102321.88;6240724;23;20275;-80
2022/09/20 08:19:29;;;;;;;2.88;1.27;;;;;;;12.37;87.72;102313.06;6214947;23;20356;-80
2022/09/20 08:21:55;;;;;;;8.80;2.05;;;;;;;12.45;86.86;102314.13;6241349;23;20018;-80
2022/09/20 08:24:21;;;;;;;5.47;1.20;;;;;;;12.43;86.56;102310.84;6217004;23;20008;-80
2022/09/20 08:26:47;;;;;;;4.60;1.27;;;;;;;12.51;85.44;102311.88;6240556;23;20095;-80
2022/09/20 08:29:14;;;;;;;6.82;2.40;;;;;;;12.58;84.94;102312.09;6216442;23;20023;-80
2022/09/20 08:31:41;;;;;;;7.90;1.60;;;;;;;12.64;86.79;102310.66;6215895;23;20370;-80
2022/09/20 08:34:10;;;;;;;9.98;2.13;;;;;;;12.71;84.80;102318.47;6240534;23;20065;-79
2022/09/20 08:36:39;;;;;;;6.00;1.58;;;;;;;12.77;87.89;102322.66;6242638;23;20422;-80
2022/09/20 08:39:05;;;;;;;10.18;2.00;;;;;;;12.72;87.82;102332.16;6214698;23;20012;-80
2022/09/20 08:41:41;;;;;;;4.57;1.25;;;;;;;12.72;85.77;102326.53;6240178;23;20015;-79
2022/09/20 08:44:23;;;;;;;2.33;1.30;;;;;;;12.73;88.38;102322.56;6215600;23;20039;-80
2022/09/20 08:47:01;;;;;;;5.53;1.00;;;;;;;12.67;86.85;102321.19;6213788;23;20022;-79
2022/09/20 08:49:28;;;;;;;3.58;1.13;;;;;;;12.58;85.50;102334.56;6240112;23;20046;-80
2022/09/20 08:51:57;;;;;;;6.80;1.40;;;;;;;12.51;85.16;102335.16;6241152;23;20012;-80
2022/09/20 08:54:24;;;;;;;6.30;1.40;;;;;;;12.60;85.11;102335.81;6230415;23;20019;-80
2022/09/20 08:56:50;;;;;;;3.70;1.13;;;;;;;12.74;85.45;102335.44;6239752;23;20498;-80
2022/09/20 08:59:18;;;;;;;3.92;1.27;;;;;;;12.91;84.58;102330.69;6240353;23;20043;-80
2022/09/20 09:01:45;;;;;;;4.15;1.38;;;;;;;12.92;83.49;102333.16;6242506;22;20012;-79
2022/09/20 09:04:22;;;;;;;1.90;1.02;;;;;;;12.86;82.56;102336.56;6242321;22;20004;-80
2022/09/20 09:06:51;;;;;;;4.68;1.52;;;;;;;13.02;81.57;102324.16;6241363;22;20079;-80
2022/09/20 09:09:22;;;;;;;6.78;1.10;;;;;;;13.06;80.69;102331.91;6240270;22;20537;-80
2022/09/20 09:11:48;;;;;;;5.53;1.00;;;;;;;13.09;80.38;102332.00;6242048;22;20011;-79
2022/09/20 09:14:51;;;;;;;8.15;1.40;;;;;;;13.25;81.72;102334.81;6239678;23;20015;-79
2022/09/20 09:17:19;;;;;;;3.08;1.30;;;;;;;13.22;80.79;102335.56;6238842;23;20073;-80
2022/09/20 09:19:54;;;;;;;6.50;1.50;;;;;;;13.56;79.89;102336.88;6242272;22;20091;-80
2022/09/20 09:22:41;;;;;;;5.32;0.90;;;;;;;13.58;81.05;102331.69;6237857;23;20102;-79
2022/09/20 09:25:06;;;;;;;7.35;1.50;;;;;;;13.75;80.62;102333.31;6241770;22;20012;-80
2022/09/20 09:27:32;;;;;;;3.65;1.10;;;;;;;13.46;78.07;102337.41;6240849;23;20008;-80
2022/09/20 09:29:57;;;;;;;9.27;1.90;;;;;;;13.44;78.32;102338.97;6238841;23;20050;-79
2022/09/20 09:32:29;;;;;;;5.40;2.40;;;;;;;13.54;78.71;102330.78;6238576;23;20473;-80
2022/09/20 09:34:56;;;;;;;3.40;1.17;;;;;;;13.74;78.07;102328.06;6240547;23;20000;-80
2022/09/20 09:37:29;;;;;;;6.65;2.03;;;;;;;13.74;77.48;102333.69;6239237;23;20020;-80
2022/09/20 09:40:17;;;;;;;3.78;1.02;;;;;;;13.70;78.55;102335.59;6239737;23;20023;-80
2022/09/20 09:42:55;;;;;;;4.50;1.42;;;;;;;13.74;78.68;102337.31;6240467;23;20018;-80
2022/09/20 09:45:37;;;;;;;6.53;1.20;;;;;;;13.62;77.47;102345.88;6238374;23;20008;-80
2022/09/20 09:48:22;;;;;;;4.85;1.20;;;;;;;13.60;76.06;102343.41;6243175;22;20399;-80
2022/09/20 09:50:47;;;;;;;4.30;1.30;;;;;;;13.55;77.49;102342.84;6239115;23;20322;-80
2022/09/20 09:53:22;;;;;;;5.03;1.83;;;;;;;13.59;79.35;102347.38;6239005;23;20078;-80
2022/09/20 09:56:24;;;;;;;3.20;1.10;;;;;;;13.58;77.99;102345.78;6239966;23;20522;-80
2022/09/20 09:59:09;;;;;;;7.90;1.52;;;;;;;13.93;78.74;102330.94;6239648;22;20042;-80
2022/09/20 10:01:35;;;;;;;5.60;1.60;;;;;;;14.02;77.09;102337.19;6239543;23;20046;-80
2022/09/20 10:04:09;;;;;;;9.88;1.83;;;;;;;14.32;74.72;102335.84;6241826;23;20015;-80
2022/09/20 10:07:08;;;;;;;5.65;1.48;;;;;;;14.90;76.94;102329.44;6241790;23;20468;-80
2022/09/20 10:09:45;;;;;;;8.63;1.40;;;;;;;14.54;75.08;102337.13;6238602;23;20433;-80
2022/09/20 10:12:53;;;;;;;6.30;0.95;;;;;;;14.24;75.75;102332.06;6237942;23;20008;-80
2022/09/20 10:15:46;;;;;;;5.70;1.40;;;;;;;14.03;74.28;102336.00;6227132;23;20044;-80
2022/09/20 10:18:29;;;;;;;7.03;1.08;;;;;;;14.01;73.71;102338.38;6236911;23;20011;-81
2022/09/20 10:21:06;;;;;;;3.50;1.10;;;;;;;14.00;76.94;102338.75;6234935;23;20437;-81
2022/09/20 10:24:12;;;;;;;6.07;1.90;;;;;;;14.00;76.11;102339.56;6238740;22;20392;-80
2022/09/20 10:27:05;;;;;;;3.45;1.20;;;;;;;14.01;78.07;102340.38;6237182;23;20011;-80
2022/09/20 10:29:51;;;;;;;5.70;1.40;;;;;;;14.08;79.38;102342.53;6239584;22;20008;-81
2022/09/20 10:32:44;;;;;;;2.85;0.98;;;;;;;14.00;78.54;102325.50;6239963;22;20019;-81
2022/09/20 10:35:23;;;;;;;3.75;1.20;;;;;;;14.10;77.10;102328.91;6235838;23;20016;-80
2022/09/20 10:38:13;;;;;;;5.38;1.30;;;;;;;14.33;76.45;102326.22;6236659;23;20035;-80
2022/09/20 10:43:50;;;;;;;4.75;1.20;;;;;;;14.46;71.78;102324.88;6237191;23;20023;-80
2022/09/20 10:47:01;;;;;;;6.70;2.05;;;;;;;14.41;74.99;102334.44;6238156;22;20008;-81
2022/09/20 10:49:49;;;;;;;5.22;1.33;;;;;;;14.03;77.85;102352.91;6146444;23;20028;-81
2022/09/20 10:53:03;;;;;;;8.13;1.20;;;;;;;13.81;81.30;102350.75;6145227;23;20010;-79
2022/09/20 10:55:39;;;;;;;;;;;;;;;13.66;82.64;102349.59;6231222;23;20087;-78
2022/09/20 10:58:32;;;;;;;4.10;0.98;;;;;;;13.74;83.18;102361.81;6236686;23;20127;-78
2022/09/20 11:01:14;;;;;;;7.30;1.65;;;;;;;13.61;83.08;102356.28;6238438;22;20391;-79
2022/09/20 11:03:57;;;;;;;7.68;1.40;;;;;;;13.68;83.44;102357.66;6238346;22;20369;-79
2022/09/20 11:06:37;;;;;;;7.80;1.08;;;;;;;13.50;82.63;102355.19;6237477;23;20047;-79
2022/09/20 11:09:08;;;;;;;2.50;1.13;;;;;;;13.55;83.69;102359.75;6238338;22;20004;-78
2022/09/20 11:11:43;;;;;;;6.88;1.40;;;;;;;13.62;83.47;102360.75;6237749;23;20020;-79
2022/09/20 11:14:18;;;;;;;3.40;1.20;;;;;;;13.71;83.48;102351.31;6234879;23;20008;-79
2022/09/20 11:16:59;;;;;;;8.90;1.60;;;;;;;13.83;83.62;102354.84;6236413;22;20083;-79
2022/09/20 11:19:46;;;;;;;4.93;1.30;;;;;;;13.83;82.83;102357.66;6238137;23;20050;-79
2022/09/20 11:22:18;;;;;;;4.88;1.30;;;;;;;13.91;82.55;102364.25;6236761;23;20016;-79
2022/09/20 11:24:49;;;;;;;5.07;1.92;;;;;;;13.98;82.92;102366.44;6238652;22;20000;-79
2022/09/20 11:27:21;;;;;;;3.22;1.10;;;;;;;13.98;81.14;102361.63;6237181;22;20441;-79
2022/09/20 11:30:15;;;;;;;5.28;1.60;;;;;;;14.09;83.05;102361.06;6236314;22;20016;-79
2022/09/20 11:33:02;;;;;;;3.63;1.42;;;;;;;14.09;82.07;102356.25;6226439;22;20012;-79
2022/09/20 11:35:33;;;;;;;5.75;1.20;;;;;;;14.26;81.36;102346.59;6239423;23;20039;-79
2022/09/20 11:38:08;;;;;;;9.38;2.72;;;;;;;14.58;80.13;102355.75;6238998;23;20004;-79
2022/09/20 11:40:41;;;;;;;6.50;1.48;;;;;;;14.84;78.51;102348.66;6239630;22;20008;-79
2022/09/20 11:43:08;;;;;;;3.10;1.33;;;;;;;14.96;76.84;102358.97;6239088;22;20116;-79
2022/09/20 11:45:37;;;;;;;6.85;1.30;;;;;;;15.05;72.62;102351.06;6237827;23;20347;-80
2022/09/20 11:48:13;;;;;;;5.78;1.42;;;;;;;15.16;73.98;102352.13;6240594;22;20636;-79
2022/09/20 11:51:09;;;;;;;7.72;1.20;;;;;;;15.41;73.00;102352.56;6240314;22;20087;-79
2022/09/20 11:54:17;;;;;;;10.63;2.30;;;;;;;15.39;72.19;102354.13;6240597;22;20012;-79
2022/09/20 11:56:55;;;;;;;5.50;1.58;;;;;;;15.58;70.25;102351.25;6242763;23;20351;-79
2022/09/20 11:59:33;;;;;;;7.45;1.42;;;;;;;15.87;66.82;102348.94;6214546;23;20343;-79
2022/09/20 12:02:02;;;;;;;8.30;1.83;;;;;;;16.28;68.38;102349.16;6216164;23;20437;-79
2022/09/20 12:04:34;;;;;;;3.67;1.13;;;;;;;16.18;68.04;102361.13;6242483;23;20023;-79
2022/09/20 12:07:04;;;;;;;6.15;1.50;;;;;;;16.10;67.00;102354.53;6242782;23;20441;-79
2022/09/20 12:09:36;;;;;;;3.25;1.00;;;;;;;15.86;67.03;102355.78;6243152;23;20004;-79
2022/09/20 12:12:45;;;;;;;3.22;0.90;;;;;;;15.76;68.87;102362.88;6243965;23;20103;-79
2022/09/20 12:15:20;;;;;;;4.07;0.82;;;;;;;16.10;65.75;102359.38;6221772;23;20042;-80
2022/09/20 12:17:45;;;;;;;4.63;1.33;;;;;;;16.40;64.49;102354.59;6216457;23;20004;-80
2022/09/20 12:20:41;;;;;;;4.47;1.10;;;;;;;16.18;63.70;102355.47;6241382;23;20012;-80
2022/09/20 12:23:41;;;;;;;4.45;1.00;;;;;;;15.94;65.33;102351.88;6242385;23;20037;-80
2022/09/20 12:26:08;;;;;;;3.55;1.58;;;;;;;16.01;66.46;102351.97;6213363;23;20533;-81